createdAt,value
2018-03-15T00:00:45.038Z,62.90
2018-03-15T00:03:20.562Z,63.00
2018-03-15T00:05:51.175Z,63.10
2018-03-15T00:08:22.056Z,63.20
2018-03-15T00:10:53.477Z,63.10
2018-03-15T00:13:24.109Z,63.10
2018-03-15T00:15:55.242Z,63.20
2018-03-15T00:18:26.119Z,63.10
2018-03-15T00:20:57.853Z,63.20
2018-03-15T00:23:28.980Z,63.20
2018-03-15T00:26:00.043Z,63.10
2018-03-15T00:28:31.089Z,63.10
2018-03-15T00:31:02.796Z,63.30
2018-03-15T00:33:34.244Z,63.30
2018-03-15T00:36:05.605Z,63.30
2018-03-15T00:38:37.051Z,63.20
2018-03-15T00:41:08.679Z,63.20
2018-03-15T00:43:39.731Z,63.30
2018-03-15T00:46:10.557Z,63.10
2018-03-15T00:48:42.396Z,63.30
2018-03-15T00:51:14.320Z,63.50
2018-03-15T00:53:45.719Z,63.40
2018-03-15T00:56:17.926Z,64.10
2018-03-15T00:58:49.353Z,63.30
2018-03-15T01:01:20.996Z,63.30
2018-03-15T01:03:53.210Z,63.50
2018-03-15T01:06:24.692Z,63.50
2018-03-15T01:08:56.149Z,63.40
2018-03-15T01:11:27.877Z,64.50
2018-03-15T01:13:58.724Z,63.50
2018-03-15T01:16:29.611Z,63.50
2018-03-15T01:19:00.846Z,63.00
2018-03-15T01:21:31.788Z,63.50
2018-03-15T01:24:03.039Z,63.40
2018-03-15T01:26:34.117Z,63.40
2018-03-15T01:29:08.241Z,63.50
2018-03-15T01:31:39.115Z,63.50
2018-03-15T01:34:11.055Z,63.40
2018-03-15T01:36:42.195Z,63.30
2018-03-15T01:39:13.293Z,63.30
2018-03-15T01:41:44.303Z,63.40
2018-03-15T01:44:14.982Z,63.50
2018-03-15T01:46:45.910Z,63.40
2018-03-15T01:49:17.450Z,62.90
2018-03-15T01:51:47.879Z,63.60
2018-03-15T01:54:18.422Z,63.50
2018-03-15T01:56:49.241Z,63.60
2018-03-15T01:59:20.256Z,63.70
2018-03-15T02:01:52.014Z,63.30
2018-03-15T02:04:22.238Z,63.80
2018-03-15T02:06:53.427Z,63.80
2018-03-15T02:09:24.378Z,63.90
2018-03-15T02:11:54.884Z,63.80
2018-03-15T02:14:25.577Z,63.90
2018-03-15T02:16:56.181Z,63.90
2018-03-15T02:19:26.502Z,63.90
2018-03-15T02:21:57.039Z,64.00
2018-03-15T02:24:27.625Z,63.90
2018-03-15T02:26:58.423Z,64.00
2018-03-15T02:29:29.502Z,64.00
2018-03-15T02:31:59.956Z,63.90
2018-03-15T02:34:30.140Z,63.90
2018-03-15T02:37:00.319Z,64.10
2018-03-15T02:39:30.915Z,64.10
2018-03-15T02:42:00.851Z,64.10
2018-03-15T02:44:30.967Z,64.10
2018-03-15T02:47:01.006Z,64.20
2018-03-15T02:49:31.836Z,64.20
2018-03-15T02:52:02.380Z,64.20
2018-03-15T02:54:33.272Z,64.30
2018-03-15T02:57:03.744Z,64.40
2018-03-15T02:59:34.284Z,64.60
2018-03-15T03:02:05.058Z,64.50
2018-03-15T03:04:34.926Z,64.60
2018-03-15T03:07:06.199Z,64.40
2018-03-15T03:09:36.308Z,64.40
2018-03-15T03:12:07.182Z,64.60
2018-03-15T03:14:37.628Z,64.60
2018-03-15T03:17:07.686Z,64.70
2018-03-15T03:19:38.513Z,64.70
2018-03-15T03:22:08.806Z,64.60
2018-03-15T03:24:38.797Z,64.70
2018-03-15T03:27:09.360Z,65.00
2018-03-15T03:29:39.164Z,64.70
2018-03-15T03:32:09.357Z,64.60
2018-03-15T03:34:39.678Z,64.60
2018-03-15T03:37:09.561Z,64.50
2018-03-15T03:39:40.528Z,64.50
2018-03-15T03:42:10.835Z,64.50
2018-03-15T03:44:41.539Z,64.50
2018-03-15T03:47:11.404Z,64.40
2018-03-15T03:49:41.773Z,64.40
2018-03-15T03:52:12.382Z,64.20
2018-03-15T03:54:42.520Z,64.10
2018-03-15T03:57:13.014Z,64.00
2018-03-15T03:59:43.249Z,63.90
2018-03-15T04:02:13.332Z,63.70
2018-03-15T04:04:43.329Z,63.60
2018-03-15T04:07:14.170Z,63.60
2018-03-15T04:09:45.109Z,63.60
2018-03-15T04:12:15.413Z,63.60
2018-03-15T04:14:45.500Z,63.70
2018-03-15T04:17:15.553Z,63.30
2018-03-15T04:19:46.003Z,63.30
2018-03-15T04:22:16.632Z,63.50
2018-03-15T04:24:47.223Z,63.30
2018-03-15T04:27:17.784Z,63.20
2018-03-15T04:29:48.672Z,63.30
2018-03-15T04:32:19.484Z,64.10
2018-03-15T04:34:49.635Z,63.30
2018-03-15T04:37:19.502Z,63.50
2018-03-15T04:39:50.267Z,63.30
2018-03-15T04:42:20.750Z,63.30
2018-03-15T04:44:50.785Z,63.40
2018-03-15T04:47:21.557Z,63.80
2018-03-15T04:49:52.008Z,63.80
2018-03-15T04:52:22.080Z,63.80
2018-03-15T04:54:52.172Z,63.80
2018-03-15T04:57:23.094Z,64.40
2018-03-15T04:59:53.298Z,63.70
2018-03-15T05:02:24.299Z,63.90
2018-03-15T05:04:54.522Z,63.80
2018-03-15T05:07:24.791Z,63.80
2018-03-15T05:09:55.431Z,63.70
2018-03-15T05:12:25.423Z,63.60
2018-03-15T05:14:55.554Z,63.60
2018-03-15T05:17:26.420Z,64.10
2018-03-15T05:19:57.741Z,63.30
2018-03-15T05:22:27.706Z,63.00
2018-03-15T05:24:58.420Z,63.30
2018-03-15T05:27:30.332Z,63.20
2018-03-15T05:30:01.883Z,63.10
2018-03-15T05:32:32.555Z,63.00
2018-03-15T05:35:03.182Z,63.30
2018-03-15T05:37:34.213Z,63.20
2018-03-15T05:40:04.781Z,63.30
2018-03-15T05:42:36.385Z,63.50
2018-03-15T05:45:07.454Z,63.50
2018-03-15T05:47:38.410Z,63.50
2018-03-15T05:50:09.403Z,63.60
2018-03-15T05:52:40.175Z,63.60
2018-03-15T05:55:11.318Z,63.50
2018-03-15T05:57:43.542Z,63.50
2018-03-15T06:00:14.666Z,63.50
2018-03-15T06:02:45.904Z,63.20
2018-03-15T06:05:21.144Z,63.30
2018-03-15T06:07:52.330Z,63.40
2018-03-15T06:10:24.117Z,63.50
2018-03-15T06:12:56.503Z,63.30
2018-03-15T06:15:28.344Z,63.50
2018-03-15T06:18:00.571Z,63.40
2018-03-15T06:20:31.929Z,63.50
2018-03-15T06:23:05.834Z,63.40
2018-03-15T06:25:55.238Z,64.40
2018-03-15T06:28:27.702Z,63.50
2018-03-15T06:31:00.834Z,64.50
2018-03-15T06:33:33.235Z,64.20
2018-03-15T06:36:05.024Z,64.20
2018-03-15T06:38:41.276Z,62.80
2018-03-15T06:41:12.955Z,62.30
2018-03-15T06:43:49.626Z,62.30
2018-03-15T06:46:27.448Z,62.30
2018-03-15T06:48:59.311Z,62.50
2018-03-15T06:51:32.456Z,62.40
2018-03-15T06:54:03.817Z,62.60
2018-03-15T06:56:35.686Z,62.70
2018-03-15T06:59:10.083Z,62.50
2018-03-15T07:01:41.389Z,62.40
2018-03-15T07:04:18.249Z,62.30
2018-03-15T07:06:50.322Z,62.20
2018-03-15T07:09:25.014Z,62.30
2018-03-15T07:12:04.284Z,62.20
2018-03-15T07:14:35.796Z,62.00
2018-03-15T07:17:07.259Z,61.80
2018-03-15T07:19:38.258Z,61.90
2018-03-15T07:22:11.543Z,61.60
2018-03-15T07:24:43.441Z,61.30
2018-03-15T07:27:15.354Z,61.30
2018-03-15T07:29:47.495Z,61.10
2018-03-15T07:32:20.648Z,61.20
2018-03-15T07:34:53.213Z,61.10
2018-03-15T07:37:24.460Z,61.00
2018-03-15T07:39:55.965Z,61.20
2018-03-15T07:42:27.108Z,60.90
2018-03-15T07:44:57.933Z,60.60
2018-03-15T07:47:29.482Z,60.30
2018-03-15T07:50:00.733Z,60.30
2018-03-15T07:52:32.340Z,60.00
2018-03-15T07:55:04.173Z,60.00
2018-03-15T07:57:36.110Z,59.50
2018-03-15T08:00:08.959Z,59.50
2018-03-15T08:02:40.551Z,59.30
2018-03-15T08:05:13.410Z,59.10
2018-03-15T08:07:47.322Z,59.00
2018-03-15T08:10:19.904Z,59.20
2018-03-15T08:12:52.175Z,58.90
2018-03-15T08:15:23.058Z,58.60
2018-03-15T08:17:54.265Z,58.30
2018-03-15T08:20:25.320Z,58.20
2018-03-15T08:22:56.454Z,57.60
2018-03-15T08:25:27.350Z,58.00
2018-03-15T08:27:58.420Z,58.00
2018-03-15T08:30:29.767Z,58.10
2018-03-15T08:33:01.166Z,58.00
2018-03-15T08:35:32.772Z,58.70
2018-03-15T08:38:04.967Z,58.20
2018-03-15T08:40:36.629Z,57.70
2018-03-15T08:43:08.064Z,57.10
2018-03-15T08:45:39.630Z,57.10
2018-03-15T08:48:12.423Z,57.10
2018-03-15T08:50:54.427Z,56.70
2018-03-15T08:53:26.681Z,56.40
2018-03-15T08:56:02.011Z,56.40
2018-03-15T08:58:34.037Z,56.20
2018-03-15T09:01:07.237Z,56.20
2018-03-15T09:03:41.376Z,56.20
2018-03-15T09:06:15.249Z,55.60
2018-03-15T09:08:47.184Z,55.60
2018-03-15T09:11:19.463Z,54.40
2018-03-15T09:13:51.009Z,54.00
2018-03-15T09:16:23.557Z,53.80
2018-03-15T09:18:54.368Z,53.70
2018-03-15T09:21:25.328Z,53.40
2018-03-15T09:23:56.186Z,53.20
2018-03-15T09:26:28.082Z,52.20
2018-03-15T09:29:01.040Z,52.20
2018-03-15T09:31:34.229Z,52.40
2018-03-15T09:34:05.308Z,51.90
2018-03-15T09:36:38.217Z,51.50
2018-03-15T09:39:11.620Z,51.50
2018-03-15T09:41:45.249Z,50.70
2018-03-15T09:44:16.494Z,50.60
2018-03-15T09:46:48.173Z,50.20
2018-03-15T09:49:19.110Z,49.80
2018-03-15T09:51:50.226Z,49.50
2018-03-15T09:54:29.112Z,49.20
2018-03-15T09:57:13.855Z,49.20
2018-03-15T09:59:45.692Z,49.30
2018-03-15T10:02:20.439Z,48.80
2018-03-15T10:04:51.265Z,48.90
2018-03-15T10:07:22.717Z,48.80
2018-03-15T10:09:57.209Z,48.60
2018-03-15T10:12:29.486Z,48.20
2018-03-15T10:15:03.094Z,50.40
2018-03-15T10:17:34.148Z,50.40
2018-03-15T10:20:05.478Z,49.30
2018-03-15T10:22:37.714Z,48.90
2018-03-15T10:25:26.393Z,48.10
2018-03-15T10:27:50.577Z,46.50
2018-03-15T10:30:22.695Z,46.20
2018-03-15T10:33:05.666Z,46.20
2018-03-15T10:35:36.570Z,46.20
2018-03-15T10:38:09.153Z,47.50
2018-03-15T10:40:40.357Z,46.40
2018-03-15T10:43:13.059Z,46.20
2018-03-15T10:45:45.162Z,45.20
2018-03-15T10:48:16.440Z,45.20
2018-03-15T10:50:48.919Z,45.30
2018-03-15T10:53:21.713Z,45.30
2018-03-15T10:55:53.816Z,45.50
2018-03-15T10:58:31.586Z,45.40
2018-03-15T11:04:37.242Z,46.50
2018-03-15T11:07:13.057Z,46.20
2018-03-15T11:09:46.937Z,47.20
2018-03-15T11:12:18.591Z,47.20
2018-03-15T11:14:51.100Z,48.30
2018-03-15T11:17:22.742Z,47.60
2018-03-15T11:19:55.617Z,47.40
2018-03-15T11:22:28.205Z,47.10
2018-03-15T11:24:59.130Z,47.10
2018-03-15T11:27:31.272Z,47.20
2018-03-15T11:33:37.007Z,47.10
2018-03-15T11:36:09.872Z,47.20
2018-03-15T11:38:42.706Z,47.20
2018-03-15T11:41:26.353Z,48.90
2018-03-15T11:43:58.168Z,47.50
2018-03-15T11:46:30.060Z,47.60
2018-03-15T11:49:01.216Z,47.70
2018-03-15T11:51:35.308Z,47.80
2018-03-15T11:54:08.499Z,47.60
2018-03-15T11:56:43.707Z,48.20
2018-03-15T12:02:11.399Z,47.40
2018-03-15T12:04:59.152Z,47.20
2018-03-15T12:07:30.232Z,47.30
2018-03-15T12:10:07.316Z,46.60
2018-03-15T12:12:42.307Z,47.70
2018-03-15T12:15:15.561Z,47.50
2018-03-15T12:17:47.446Z,47.60
2018-03-15T12:20:19.421Z,47.60
2018-03-15T12:22:54.634Z,47.70
2018-03-15T12:25:46.970Z,47.70
2018-03-15T12:28:28.912Z,47.90
2018-03-15T12:30:59.428Z,46.90
2018-03-15T12:33:32.897Z,47.40
2018-03-15T12:36:04.313Z,47.40
2018-03-15T12:38:36.289Z,47.40
2018-03-15T12:41:08.197Z,47.40
2018-03-15T12:43:42.232Z,47.30
2018-03-15T12:46:15.370Z,47.80
2018-03-15T12:48:47.656Z,47.20
2018-03-15T12:51:23.737Z,46.60
2018-03-15T12:54:06.709Z,46.60
2018-03-15T12:56:39.762Z,46.40
2018-03-15T12:59:11.910Z,46.00
2018-03-15T13:01:55.818Z,45.40
2018-03-15T13:04:44.322Z,44.80
2018-03-15T13:10:11.129Z,44.50
2018-03-15T13:12:43.135Z,45.10
2018-03-15T13:15:14.310Z,44.80
2018-03-15T13:17:48.386Z,44.80
2018-03-15T13:23:16.698Z,45.00
2018-03-15T13:26:12.466Z,45.20
2018-03-15T13:28:44.886Z,44.60
2018-03-15T13:31:21.189Z,44.60
2018-03-15T13:33:55.090Z,44.50
2018-03-15T13:36:31.527Z,44.20
2018-03-15T13:39:04.390Z,44.40
2018-03-15T13:41:37.518Z,43.80
2018-03-15T13:44:11.726Z,43.80
2018-03-15T13:46:43.410Z,44.10
2018-03-15T13:49:14.345Z,44.00
2018-03-15T13:54:32.977Z,44.40
2018-03-15T13:57:06.525Z,44.20
2018-03-15T13:59:41.051Z,44.00
2018-03-15T14:02:15.237Z,44.00
2018-03-15T14:04:47.462Z,43.80
2018-03-15T14:07:24.789Z,43.30
2018-03-15T14:09:56.385Z,43.20
2018-03-15T14:12:32.291Z,43.00
2018-03-15T14:15:06.481Z,43.20
2018-03-15T14:17:46.251Z,43.40
2018-03-15T14:20:46.374Z,43.40
2018-03-15T14:26:47.266Z,43.90
2018-03-15T14:29:19.554Z,43.90
2018-03-15T14:31:51.040Z,43.90
2018-03-15T14:34:22.470Z,43.30
2018-03-15T14:36:52.991Z,43.30
2018-03-15T14:39:24.385Z,43.90
2018-03-15T14:41:55.904Z,44.50
2018-03-15T14:44:26.432Z,44.50
2018-03-15T14:46:58.082Z,44.60
2018-03-15T14:49:30.042Z,45.80
2018-03-15T14:52:04.392Z,45.70
2018-03-15T14:54:35.986Z,44.50
2018-03-15T14:57:07.070Z,44.50
2018-03-15T14:59:38.881Z,44.50
2018-03-15T15:02:09.652Z,44.50
2018-03-15T15:04:40.551Z,44.80
2018-03-15T15:07:12.893Z,44.70
2018-03-15T15:09:49.282Z,44.90
2018-03-15T15:12:21.003Z,44.90
2018-03-15T15:14:52.993Z,45.30
2018-03-15T15:17:25.167Z,45.50
2018-03-15T15:19:57.199Z,45.80
2018-03-15T15:22:29.024Z,46.20
2018-03-15T15:25:02.680Z,46.20
2018-03-15T15:27:34.995Z,46.30
2018-03-15T15:30:10.312Z,46.60
2018-03-15T15:32:41.091Z,46.60
2018-03-15T15:35:11.854Z,46.70
2018-03-15T15:37:43.610Z,46.80
2018-03-15T15:40:15.160Z,47.00
2018-03-15T15:42:46.717Z,46.90
2018-03-15T15:45:18.825Z,47.20
2018-03-15T15:47:49.665Z,47.20
2018-03-15T15:50:21.373Z,47.20
2018-03-15T15:52:52.797Z,47.80
2018-03-15T15:55:24.934Z,47.70
2018-03-15T15:57:56.710Z,47.90
2018-03-15T16:00:28.118Z,48.20
2018-03-15T16:02:59.441Z,48.20
2018-03-15T16:05:31.591Z,48.80
2018-03-15T16:08:03.016Z,48.80
2018-03-15T16:10:33.957Z,48.70
2018-03-15T16:13:05.135Z,48.80
2018-03-15T16:15:36.872Z,49.00
2018-03-15T16:18:08.247Z,49.10
2018-03-15T16:20:45.869Z,49.20
2018-03-15T16:23:16.762Z,49.20
2018-03-15T16:25:49.623Z,49.60
2018-03-15T16:28:20.344Z,49.60
2018-03-15T16:30:51.501Z,49.40
2018-03-15T16:33:28.643Z,49.50
2018-03-15T16:36:04.627Z,50.60
2018-03-15T16:38:35.788Z,50.70
2018-03-15T16:41:07.851Z,51.70
2018-03-15T16:43:38.537Z,51.60
2018-03-15T16:46:09.855Z,52.90
2018-03-15T16:48:40.993Z,52.90
2018-03-15T16:51:12.028Z,53.90
2018-03-15T16:53:44.624Z,55.20
2018-03-15T16:56:17.719Z,56.30
2018-03-15T16:58:52.732Z,58.10
2018-03-15T17:01:27.145Z,59.00
2018-03-15T17:03:59.109Z,58.00
2018-03-15T17:06:30.344Z,58.70
2018-03-15T17:09:01.193Z,58.70
2018-03-15T17:11:33.131Z,59.90
2018-03-15T17:14:03.619Z,62.80
2018-03-15T17:16:34.836Z,62.40
2018-03-15T17:19:05.371Z,62.30
2018-03-15T17:21:36.012Z,63.10
2018-03-15T17:24:07.601Z,67.60
2018-03-15T17:26:44.590Z,67.50
2018-03-15T17:29:15.348Z,66.50
2018-03-15T17:31:45.942Z,67.10
2018-03-15T17:34:17.234Z,68.40
2018-03-15T17:36:56.205Z,68.40
2018-03-15T17:39:28.502Z,69.20
2018-03-15T17:42:00.171Z,67.60
2018-03-15T17:44:31.682Z,67.50
2018-03-15T17:47:03.287Z,69.00
2018-03-15T17:49:33.949Z,69.10
2018-03-15T17:52:05.376Z,68.70
2018-03-15T17:54:35.888Z,68.00
2018-03-15T17:57:06.426Z,67.90
2018-03-15T17:59:36.959Z,67.60
2018-03-15T18:02:08.768Z,67.10
2018-03-15T18:04:39.292Z,67.30
2018-03-15T18:07:11.176Z,67.30
2018-03-15T18:09:41.810Z,67.30
2018-03-15T18:12:12.596Z,66.80
2018-03-15T18:14:43.168Z,65.30
2018-03-15T18:17:13.577Z,65.40
2018-03-15T18:19:44.941Z,65.50
2018-03-15T18:22:16.053Z,65.60
2018-03-15T18:24:46.809Z,66.30
2018-03-15T18:27:18.177Z,66.90
2018-03-15T18:29:48.681Z,67.00
2018-03-15T18:32:19.942Z,67.50
2018-03-15T18:34:50.605Z,68.30
2018-03-15T18:37:21.196Z,68.40
2018-03-15T18:39:52.388Z,67.60
2018-03-15T18:42:23.448Z,69.00
2018-03-15T18:44:54.080Z,69.90
2018-03-15T18:47:24.465Z,71.00
2018-03-15T18:49:54.890Z,71.60
2018-03-15T18:52:26.428Z,71.80
2018-03-15T18:54:56.976Z,72.10
2018-03-15T18:57:27.702Z,71.60
2018-03-15T18:59:58.165Z,71.80
2018-03-15T19:02:28.588Z,71.40
2018-03-15T19:04:59.034Z,70.60
2018-03-15T19:07:30.488Z,71.00
2018-03-15T19:10:03.554Z,71.20
2018-03-15T19:12:34.034Z,71.30
2018-03-15T19:15:04.836Z,71.70
2018-03-15T19:17:35.145Z,71.70
2018-03-15T19:20:05.951Z,72.10
2018-03-15T19:22:38.719Z,73.50
2018-03-15T19:25:09.359Z,73.80
2018-03-15T19:27:39.952Z,73.90
2018-03-15T19:30:12.249Z,74.80
2018-03-15T19:32:42.755Z,74.80
2018-03-15T19:35:14.132Z,75.10
2018-03-15T19:37:45.125Z,75.10
2018-03-15T19:40:21.087Z,75.50
2018-03-15T19:42:51.614Z,75.70
2018-03-15T19:45:22.082Z,75.50
2018-03-15T19:47:52.845Z,75.10
2018-03-15T19:50:23.861Z,73.50
2018-03-15T19:52:54.493Z,73.00
2018-03-15T19:55:24.941Z,72.70
2018-03-15T19:57:55.977Z,72.60
2018-03-15T20:00:26.843Z,72.40
2018-03-15T20:02:58.020Z,72.60
2018-03-15T20:05:29.254Z,72.00
2018-03-15T20:08:02.606Z,71.90
2018-03-15T20:10:34.550Z,71.90
2018-03-15T20:13:05.055Z,71.90
2018-03-15T20:15:41.308Z,72.30
2018-03-15T20:18:13.519Z,72.90
2018-03-15T20:20:44.040Z,72.20
2018-03-15T20:23:18.732Z,72.00
2018-03-15T20:25:49.558Z,71.90
2018-03-15T20:28:50.640Z,71.80
2018-03-15T20:31:21.997Z,72.50
2018-03-15T20:34:13.309Z,72.60
2018-03-15T20:36:49.610Z,72.50
2018-03-15T20:39:26.761Z,72.60
2018-03-15T20:42:02.230Z,74.20
2018-03-15T20:44:36.342Z,72.80
2018-03-15T20:49:18.450Z,73.00
2018-03-15T20:51:56.699Z,73.20
2018-03-15T20:54:33.152Z,72.70
2018-03-15T20:57:03.786Z,73.40
2018-03-15T20:59:34.685Z,72.90
2018-03-15T21:02:05.227Z,72.70
2018-03-15T21:04:35.702Z,72.40
2018-03-15T21:07:07.384Z,72.40
2018-03-15T21:09:37.978Z,72.50
2018-03-15T21:12:08.816Z,72.50
2018-03-15T21:14:39.514Z,72.40
2018-03-15T21:17:10.173Z,72.20
2018-03-15T21:19:40.843Z,72.30
2018-03-15T21:22:11.399Z,72.30
2018-03-15T21:24:42.071Z,72.30
2018-03-15T21:27:13.088Z,72.10
2018-03-15T21:29:43.868Z,73.20
2018-03-15T21:32:15.297Z,74.10
2018-03-15T21:34:45.991Z,74.10
2018-03-15T21:37:16.768Z,74.10
2018-03-15T21:39:47.436Z,73.90
2018-03-15T21:42:18.556Z,74.10
2018-03-15T21:44:49.232Z,73.70
2018-03-15T21:47:19.800Z,73.40
2018-03-15T21:49:50.411Z,72.50
2018-03-15T21:52:21.082Z,72.40
2018-03-15T21:54:52.740Z,72.30
2018-03-15T21:57:24.156Z,72.40
2018-03-15T21:59:54.860Z,72.40
2018-03-15T22:02:25.599Z,72.20
2018-03-15T22:04:56.623Z,72.20
2018-03-15T22:07:27.229Z,73.50
2018-03-15T22:09:58.973Z,72.80
2018-03-15T22:12:29.712Z,73.80
2018-03-15T22:15:00.765Z,72.70
2018-03-15T22:17:31.877Z,72.30
2018-03-15T22:20:02.777Z,72.10
2018-03-15T22:22:33.515Z,71.90
2018-03-15T22:25:04.372Z,71.90
2018-03-15T22:27:35.180Z,72.10
2018-03-15T22:30:06.074Z,72.60
2018-03-15T22:32:36.995Z,73.90
2018-03-15T22:35:07.801Z,74.10
2018-03-15T22:37:38.402Z,74.00
2018-03-15T22:40:10.738Z,74.30
2018-03-15T22:42:41.619Z,74.30
2018-03-15T22:45:12.245Z,73.80
2018-03-15T22:47:42.972Z,73.80
2018-03-15T22:50:14.672Z,73.60
2018-03-15T22:52:45.924Z,73.60
2018-03-15T22:55:16.562Z,73.50
2018-03-15T22:57:47.137Z,73.30
2018-03-15T23:00:19.799Z,73.50
2018-03-15T23:02:50.545Z,73.50
2018-03-15T23:05:22.253Z,73.60
2018-03-15T23:07:52.967Z,73.60
2018-03-15T23:10:24.379Z,73.50
2018-03-15T23:12:55.520Z,73.30
2018-03-15T23:15:26.502Z,73.50
2018-03-15T23:17:57.372Z,73.20
2018-03-15T23:20:28.326Z,73.30
2018-03-15T23:22:58.915Z,73.30
2018-03-15T23:25:30.198Z,72.90
2018-03-15T23:28:01.013Z,73.30
2018-03-15T23:30:31.621Z,73.30
2018-03-15T23:33:02.458Z,73.40
2018-03-15T23:35:33.454Z,73.30
2018-03-15T23:38:05.198Z,73.30
2018-03-15T23:40:36.293Z,73.50
2018-03-15T23:43:07.803Z,73.40
2018-03-15T23:45:38.863Z,73.60
2018-03-15T23:48:11.585Z,73.60
2018-03-15T23:50:43.812Z,73.70
2018-03-15T23:53:16.252Z,73.60
2018-03-15T23:55:47.411Z,73.70
2018-03-15T23:58:18.634Z,73.50
